sensor_id;sensor_type;location;lat;lon;timestamp;temperature;humidity
18365;DHT22;9309;52.126;11.616;2023-10-31T00:01:38;12.00;93.80
18365;DHT22;9309;52.126;11.616;2023-10-31T00:04:05;12.10;93.40
18365;DHT22;9309;52.126;11.616;2023-10-31T00:06:32;12.00;92.60
18365;DHT22;9309;52.126;11.616;2023-10-31T00:08:58;11.90;93.70
18365;DHT22;9309;52.126;11.616;2023-10-31T00:11:25;11.70;94.40
18365;DHT22;9309;52.126;11.616;2023-10-31T00:13:53;11.90;94.30
18365;DHT22;9309;52.126;11.616;2023-10-31T00:16:20;12.00;93.90
18365;DHT22;9309;52.126;11.616;2023-10-31T00:18:47;12.00;93.50
18365;DHT22;9309;52.126;11.616;2023-10-31T00:21:13;12.00;93.90
18365;DHT22;9309;52.126;11.616;2023-10-31T00:23:43;11.90;93.20
18365;DHT22;9309;52.126;11.616;2023-10-31T00:26:11;11.60;95.20
18365;DHT22;9309;52.126;11.616;2023-10-31T00:28:41;11.60;95.80
18365;DHT22;9309;52.126;11.616;2023-10-31T00:31:09;11.60;95.70
18365;DHT22;9309;52.126;11.616;2023-10-31T00:33:37;11.80;95.40
18365;DHT22;9309;52.126;11.616;2023-10-31T00:36:04;11.50;96.00
18365;DHT22;9309;52.126;11.616;2023-10-31T00:38:31;11.60;96.80
18365;DHT22;9309;52.126;11.616;2023-10-31T00:40:58;11.80;95.20
18365;DHT22;9309;52.126;11.616;2023-10-31T00:43:25;11.90;94.20
18365;DHT22;9309;52.126;11.616;2023-10-31T00:45:51;11.80;94.40
18365;DHT22;9309;52.126;11.616;2023-10-31T00:48:20;11.80;95.10
18365;DHT22;9309;52.126;11.616;2023-10-31T00:50:47;12.00;93.50
18365;DHT22;9309;52.126;11.616;2023-10-31T00:53:14;11.70;94.60
18365;DHT22;9309;52.126;11.616;2023-10-31T00:55:42;11.70;95.30
18365;DHT22;9309;52.126;11.616;2023-10-31T00:58:09;11.70;95.20
18365;DHT22;9309;52.126;11.616;2023-10-31T01:00:36;11.70;95.90
18365;DHT22;9309;52.126;11.616;2023-10-31T01:03:03;11.60;95.50
18365;DHT22;9309;52.126;11.616;2023-10-31T01:05:31;11.50;96.40
18365;DHT22;9309;52.126;11.616;2023-10-31T01:07:58;11.40;97.00
18365;DHT22;9309;52.126;11.616;2023-10-31T01:10:24;11.30;97.70
18365;DHT22;9309;52.126;11.616;2023-10-31T01:12:51;11.40;97.90
18365;DHT22;9309;52.126;11.616;2023-10-31T01:15:18;11.40;97.30
18365;DHT22;9309;52.126;11.616;2023-10-31T01:17:45;11.40;97.10
18365;DHT22;9309;52.126;11.616;2023-10-31T01:20:11;11.40;97.10
18365;DHT22;9309;52.126;11.616;2023-10-31T01:22:40;11.50;97.20
18365;DHT22;9309;52.126;11.616;2023-10-31T01:25:06;11.60;97.20
18365;DHT22;9309;52.126;11.616;2023-10-31T01:27:33;11.50;96.70
18365;DHT22;9309;52.126;11.616;2023-10-31T01:30:00;11.70;96.70
18365;DHT22;9309;52.126;11.616;2023-10-31T01:32:27;11.80;96.00
18365;DHT22;9309;52.126;11.616;2023-10-31T01:34:54;11.80;95.20
18365;DHT22;9309;52.126;11.616;2023-10-31T01:37:21;11.80;95.00
18365;DHT22;9309;52.126;11.616;2023-10-31T01:39:49;11.90;94.90
18365;DHT22;9309;52.126;11.616;2023-10-31T01:42:16;12.00;94.30
18365;DHT22;9309;52.126;11.616;2023-10-31T01:44:43;12.00;93.30
18365;DHT22;9309;52.126;11.616;2023-10-31T01:47:09;11.90;94.40
18365;DHT22;9309;52.126;11.616;2023-10-31T01:49:36;11.90;94.00
18365;DHT22;9309;52.126;11.616;2023-10-31T01:52:04;11.70;95.10
18365;DHT22;9309;52.126;11.616;2023-10-31T01:54:31;11.50;96.10
18365;DHT22;9309;52.126;11.616;2023-10-31T01:56:59;11.50;96.90
18365;DHT22;9309;52.126;11.616;2023-10-31T01:59:26;11.60;96.60
18365;DHT22;9309;52.126;11.616;2023-10-31T02:01:53;11.60;96.30
18365;DHT22;9309;52.126;11.616;2023-10-31T02:04:20;11.50;96.80
18365;DHT22;9309;52.126;11.616;2023-10-31T02:06:47;11.50;97.00
18365;DHT22;9309;52.126;11.616;2023-10-31T02:09:14;11.60;96.90
18365;DHT22;9309;52.126;11.616;2023-10-31T02:11:40;11.80;96.10
18365;DHT22;9309;52.126;11.616;2023-10-31T02:14:08;11.90;95.10
18365;DHT22;9309;52.126;11.616;2023-10-31T02:16:35;11.70;95.30
18365;DHT22;9309;52.126;11.616;2023-10-31T02:19:02;11.80;95.60
18365;DHT22;9309;52.126;11.616;2023-10-31T02:21:29;11.90;94.90
18365;DHT22;9309;52.126;11.616;2023-10-31T02:23:58;11.90;95.00
18365;DHT22;9309;52.126;11.616;2023-10-31T02:26:28;11.90;95.20
18365;DHT22;9309;52.126;11.616;2023-10-31T02:28:54;11.70;95.70
18365;DHT22;9309;52.126;11.616;2023-10-31T02:31:21;11.70;96.90
18365;DHT22;9309;52.126;11.616;2023-10-31T02:33:47;11.70;96.50
18365;DHT22;9309;52.126;11.616;2023-10-31T02:36:14;11.70;95.90
18365;DHT22;9309;52.126;11.616;2023-10-31T02:38:41;11.50;96.70
18365;DHT22;9309;52.126;11.616;2023-10-31T02:41:09;11.40;98.00
18365;DHT22;9309;52.126;11.616;2023-10-31T02:43:36;11.50;98.20
18365;DHT22;9309;52.126;11.616;2023-10-31T02:46:02;11.50;97.70
18365;DHT22;9309;52.126;11.616;2023-10-31T02:48:29;11.50;97.60
18365;DHT22;9309;52.126;11.616;2023-10-31T02:50:57;11.70;97.70
18365;DHT22;9309;52.126;11.616;2023-10-31T02:53:25;11.60;96.60
18365;DHT22;9309;52.126;11.616;2023-10-31T02:55:52;11.50;97.60
18365;DHT22;9309;52.126;11.616;2023-10-31T02:58:19;11.60;97.20
18365;DHT22;9309;52.126;11.616;2023-10-31T03:00:46;11.60;97.40
18365;DHT22;9309;52.126;11.616;2023-10-31T03:03:13;11.60;97.70
18365;DHT22;9309;52.126;11.616;2023-10-31T03:05:39;11.80;97.00
18365;DHT22;9309;52.126;11.616;2023-10-31T03:08:06;11.90;95.60
18365;DHT22;9309;52.126;11.616;2023-10-31T03:10:35;12.00;94.50
18365;DHT22;9309;52.126;11.616;2023-10-31T03:13:02;12.10;93.80
18365;DHT22;9309;52.126;11.616;2023-10-31T03:15:31;12.00;93.70
18365;DHT22;9309;52.126;11.616;2023-10-31T03:17:57;11.90;94.60
18365;DHT22;9309;52.126;11.616;2023-10-31T03:20:24;12.00;94.60
18365;DHT22;9309;52.126;11.616;2023-10-31T03:22:50;12.10;94.10
18365;DHT22;9309;52.126;11.616;2023-10-31T03:25:17;12.10;93.80
18365;DHT22;9309;52.126;11.616;2023-10-31T03:27:44;12.00;94.20
18365;DHT22;9309;52.126;11.616;2023-10-31T03:30:11;12.00;94.50
18365;DHT22;9309;52.126;11.616;2023-10-31T03:32:39;12.00;94.70
18365;DHT22;9309;52.126;11.616;2023-10-31T03:35:06;12.00;94.30
18365;DHT22;9309;52.126;11.616;2023-10-31T03:37:32;11.90;95.20
18365;DHT22;9309;52.126;11.616;2023-10-31T03:39:59;12.00;94.80
18365;DHT22;9309;52.126;11.616;2023-10-31T03:42:26;11.90;95.30
18365;DHT22;9309;52.126;11.616;2023-10-31T03:44:55;12.00;95.10
18365;DHT22;9309;52.126;11.616;2023-10-31T03:47:21;12.10;94.50
18365;DHT22;9309;52.126;11.616;2023-10-31T03:49:49;12.00;94.80
18365;DHT22;9309;52.126;11.616;2023-10-31T03:52:16;12.00;94.40
18365;DHT22;9309;52.126;11.616;2023-10-31T03:54:43;11.90;95.60
18365;DHT22;9309;52.126;11.616;2023-10-31T03:57:09;11.70;96.40
18365;DHT22;9309;52.126;11.616;2023-10-31T03:59:36;11.50;97.50
18365;DHT22;9309;52.126;11.616;2023-10-31T04:02:05;11.70;98.10
18365;DHT22;9309;52.126;11.616;2023-10-31T04:04:31;11.90;96.60
18365;DHT22;9309;52.126;11.616;2023-10-31T04:06:59;11.90;96.40
18365;DHT22;9309;52.126;11.616;2023-10-31T04:09:26;12.00;96.00
18365;DHT22;9309;52.126;11.616;2023-10-31T04:11:52;12.00;95.90
18365;DHT22;9309;52.126;11.616;2023-10-31T04:14:19;12.10;95.50
18365;DHT22;9309;52.126;11.616;2023-10-31T04:16:45;12.00;96.10
18365;DHT22;9309;52.126;11.616;2023-10-31T04:19:12;12.00;95.20
18365;DHT22;9309;52.126;11.616;2023-10-31T04:21:39;11.90;96.40
18365;DHT22;9309;52.126;11.616;2023-10-31T04:24:07;12.00;96.20
18365;DHT22;9309;52.126;11.616;2023-10-31T04:26:34;12.20;95.20
18365;DHT22;9309;52.126;11.616;2023-10-31T04:29:00;12.30;94.60
18365;DHT22;9309;52.126;11.616;2023-10-31T04:31:27;12.10;94.50
18365;DHT22;9309;52.126;11.616;2023-10-31T04:33:53;12.10;95.10
18365;DHT22;9309;52.126;11.616;2023-10-31T04:36:20;12.10;95.60
18365;DHT22;9309;52.126;11.616;2023-10-31T04:38:47;12.10;95.90
18365;DHT22;9309;52.126;11.616;2023-10-31T04:41:14;12.10;95.80
18365;DHT22;9309;52.126;11.616;2023-10-31T04:43:41;12.20;95.30
18365;DHT22;9309;52.126;11.616;2023-10-31T04:46:08;12.10;95.50
18365;DHT22;9309;52.126;11.616;2023-10-31T04:48:34;12.20;95.60
18365;DHT22;9309;52.126;11.616;2023-10-31T04:51:01;12.30;94.50
18365;DHT22;9309;52.126;11.616;2023-10-31T04:53:28;12.30;94.50
18365;DHT22;9309;52.126;11.616;2023-10-31T04:55:54;12.20;94.80
18365;DHT22;9309;52.126;11.616;2023-10-31T04:58:22;12.10;94.80
18365;DHT22;9309;52.126;11.616;2023-10-31T05:00:49;12.10;95.50
18365;DHT22;9309;52.126;11.616;2023-10-31T05:03:15;12.00;96.00
18365;DHT22;9309;52.126;11.616;2023-10-31T05:05:43;12.00;96.10
18365;DHT22;9309;52.126;11.616;2023-10-31T05:08:09;12.00;96.30
18365;DHT22;9309;52.126;11.616;2023-10-31T05:10:36;12.20;96.10
18365;DHT22;9309;52.126;11.616;2023-10-31T05:13:03;12.20;95.40
18365;DHT22;9309;52.126;11.616;2023-10-31T05:15:30;12.20;95.10
18365;DHT22;9309;52.126;11.616;2023-10-31T05:17:57;12.00;96.30
18365;DHT22;9309;52.126;11.616;2023-10-31T05:20:24;12.20;96.40
18365;DHT22;9309;52.126;11.616;2023-10-31T05:22:50;12.20;96.00
18365;DHT22;9309;52.126;11.616;2023-10-31T05:25:17;12.20;96.20
18365;DHT22;9309;52.126;11.616;2023-10-31T05:27:43;12.10;95.30
18365;DHT22;9309;52.126;11.616;2023-10-31T05:30:12;12.10;95.70
18365;DHT22;9309;52.126;11.616;2023-10-31T05:32:40;12.00;94.80
18365;DHT22;9309;52.126;11.616;2023-10-31T05:35:07;12.00;93.80
18365;DHT22;9309;52.126;11.616;2023-10-31T05:37:34;12.00;93.10
18365;DHT22;9309;52.126;11.616;2023-10-31T05:40:00;12.00;91.50
18365;DHT22;9309;52.126;11.616;2023-10-31T05:42:27;11.90;91.90
18365;DHT22;9309;52.126;11.616;2023-10-31T05:44:54;11.90;90.40
18365;DHT22;9309;52.126;11.616;2023-10-31T05:47:22;11.80;89.30
18365;DHT22;9309;52.126;11.616;2023-10-31T05:49:50;11.80;88.70
18365;DHT22;9309;52.126;11.616;2023-10-31T05:52:17;11.70;87.60
18365;DHT22;9309;52.126;11.616;2023-10-31T05:54:43;11.60;87.00
18365;DHT22;9309;52.126;11.616;2023-10-31T05:57:10;11.50;86.80
18365;DHT22;9309;52.126;11.616;2023-10-31T05:59:37;11.50;86.20
18365;DHT22;9309;52.126;11.616;2023-10-31T06:02:03;11.50;85.30
18365;DHT22;9309;52.126;11.616;2023-10-31T06:04:30;11.40;86.00
18365;DHT22;9309;52.126;11.616;2023-10-31T06:06:58;11.50;85.90
18365;DHT22;9309;52.126;11.616;2023-10-31T06:09:24;11.50;84.40
18365;DHT22;9309;52.126;11.616;2023-10-31T06:11:51;11.50;83.80
18365;DHT22;9309;52.126;11.616;2023-10-31T06:14:18;11.50;82.80
18365;DHT22;9309;52.126;11.616;2023-10-31T06:16:44;11.60;81.90
18365;DHT22;9309;52.126;11.616;2023-10-31T06:19:11;11.70;80.90
18365;DHT22;9309;52.126;11.616;2023-10-31T06:21:37;11.60;81.60
18365;DHT22;9309;52.126;11.616;2023-10-31T06:24:07;11.60;80.50
18365;DHT22;9309;52.126;11.616;2023-10-31T06:26:33;11.60;80.60
18365;DHT22;9309;52.126;11.616;2023-10-31T06:29:00;11.50;81.10
18365;DHT22;9309;52.126;11.616;2023-10-31T06:31:27;11.50;80.40
18365;DHT22;9309;52.126;11.616;2023-10-31T06:33:53;11.40;78.40
18365;DHT22;9309;52.126;11.616;2023-10-31T06:36:20;11.40;78.40
18365;DHT22;9309;52.126;11.616;2023-10-31T06:38:46;11.40;78.30
18365;DHT22;9309;52.126;11.616;2023-10-31T06:41:15;11.30;78.40
18365;DHT22;9309;52.126;11.616;2023-10-31T06:43:41;11.20;78.20
18365;DHT22;9309;52.126;11.616;2023-10-31T06:46:08;11.20;78.70
18365;DHT22;9309;52.126;11.616;2023-10-31T06:48:34;11.10;78.10
18365;DHT22;9309;52.126;11.616;2023-10-31T06:51:01;11.10;78.30
18365;DHT22;9309;52.126;11.616;2023-10-31T06:53:28;11.10;78.90
18365;DHT22;9309;52.126;11.616;2023-10-31T06:55:54;11.10;78.70
18365;DHT22;9309;52.126;11.616;2023-10-31T06:58:22;11.10;78.60
18365;DHT22;9309;52.126;11.616;2023-10-31T07:00:49;11.10;78.60
18365;DHT22;9309;52.126;11.616;2023-10-31T07:03:15;11.10;78.70
18365;DHT22;9309;52.126;11.616;2023-10-31T07:05:42;11.10;78.80
18365;DHT22;9309;52.126;11.616;2023-10-31T07:08:09;11.10;77.90
18365;DHT22;9309;52.126;11.616;2023-10-31T07:10:35;11.20;78.50
18365;DHT22;9309;52.126;11.616;2023-10-31T07:13:02;11.10;78.50
18365;DHT22;9309;52.126;11.616;2023-10-31T07:15:30;11.20;78.70
18365;DHT22;9309;52.126;11.616;2023-10-31T07:17:56;11.10;78.40
18365;DHT22;9309;52.126;11.616;2023-10-31T07:20:23;11.10;79.00
18365;DHT22;9309;52.126;11.616;2023-10-31T07:22:49;11.10;78.90
18365;DHT22;9309;52.126;11.616;2023-10-31T07:25:16;11.10;79.20
18365;DHT22;9309;52.126;11.616;2023-10-31T07:27:43;11.10;79.10
18365;DHT22;9309;52.126;11.616;2023-10-31T07:30:10;11.10;79.10
18365;DHT22;9309;52.126;11.616;2023-10-31T07:32:38;11.10;78.80
18365;DHT22;9309;52.126;11.616;2023-10-31T07:35:04;11.20;78.90
18365;DHT22;9309;52.126;11.616;2023-10-31T07:37:31;11.20;78.50
18365;DHT22;9309;52.126;11.616;2023-10-31T07:39:58;11.30;78.70
18365;DHT22;9309;52.126;11.616;2023-10-31T07:42:24;11.40;78.60
18365;DHT22;9309;52.126;11.616;2023-10-31T07:44:51;11.40;78.40
18365;DHT22;9309;52.126;11.616;2023-10-31T07:47:17;11.50;78.60
18365;DHT22;9309;52.126;11.616;2023-10-31T07:49:45;11.70;77.60
18365;DHT22;9309;52.126;11.616;2023-10-31T07:52:13;11.80;76.80
18365;DHT22;9309;52.126;11.616;2023-10-31T07:54:40;12.00;76.10
18365;DHT22;9309;52.126;11.616;2023-10-31T07:57:06;12.10;75.90
18365;DHT22;9309;52.126;11.616;2023-10-31T07:59:33;12.00;76.60
18365;DHT22;9309;52.126;11.616;2023-10-31T08:01:59;11.80;77.30
18365;DHT22;9309;52.126;11.616;2023-10-31T08:04:26;12.20;76.50
18365;DHT22;9309;52.126;11.616;2023-10-31T08:06:54;12.50;75.10
18365;DHT22;9309;52.126;11.616;2023-10-31T08:09:21;12.70;74.30
18365;DHT22;9309;52.126;11.616;2023-10-31T08:11:48;13.00;73.70
18365;DHT22;9309;52.126;11.616;2023-10-31T08:14:14;13.50;70.80
18365;DHT22;9309;52.126;11.616;2023-10-31T08:16:41;13.90;69.50
18365;DHT22;9309;52.126;11.616;2023-10-31T08:19:08;14.30;67.60
18365;DHT22;9309;52.126;11.616;2023-10-31T08:21:34;14.20;67.30
18365;DHT22;9309;52.126;11.616;2023-10-31T08:24:04;13.60;69.00
18365;DHT22;9309;52.126;11.616;2023-10-31T08:26:31;13.10;71.50
18365;DHT22;9309;52.126;11.616;2023-10-31T08:28:58;12.80;72.40
18365;DHT22;9309;52.126;11.616;2023-10-31T08:31:24;12.70;72.60
18365;DHT22;9309;52.126;11.616;2023-10-31T08:33:51;12.70;73.10
18365;DHT22;9309;52.126;11.616;2023-10-31T08:36:17;12.60;73.50
18365;DHT22;9309;52.126;11.616;2023-10-31T08:38:44;12.90;72.40
18365;DHT22;9309;52.126;11.616;2023-10-31T08:41:12;12.80;72.50
18365;DHT22;9309;52.126;11.616;2023-10-31T08:43:44;12.60;72.80
18365;DHT22;9309;52.126;11.616;2023-10-31T08:46:10;12.50;73.70
18365;DHT22;9309;52.126;11.616;2023-10-31T08:48:37;12.40;74.50
18365;DHT22;9309;52.126;11.616;2023-10-31T08:51:04;12.30;74.60
18365;DHT22;9309;52.126;11.616;2023-10-31T08:53:31;12.30;74.90
18365;DHT22;9309;52.126;11.616;2023-10-31T08:55:57;12.40;74.80
18365;DHT22;9309;52.126;11.616;2023-10-31T08:58:25;12.30;75.40
18365;DHT22;9309;52.126;11.616;2023-10-31T09:00:52;12.40;75.00
18365;DHT22;9309;52.126;11.616;2023-10-31T09:03:18;12.40;75.50
18365;DHT22;9309;52.126;11.616;2023-10-31T09:05:45;12.40;76.00
18365;DHT22;9309;52.126;11.616;2023-10-31T09:08:12;12.40;75.90
18365;DHT22;9309;52.126;11.616;2023-10-31T09:10:38;12.30;75.80
18365;DHT22;9309;52.126;11.616;2023-10-31T09:13:05;12.30;76.60
18365;DHT22;9309;52.126;11.616;2023-10-31T09:15:33;12.30;76.10
18365;DHT22;9309;52.126;11.616;2023-10-31T09:17:59;12.20;75.70
18365;DHT22;9309;52.126;11.616;2023-10-31T09:20:26;12.20;76.20
18365;DHT22;9309;52.126;11.616;2023-10-31T09:22:53;12.30;76.00
18365;DHT22;9309;52.126;11.616;2023-10-31T09:25:19;12.40;75.80
18365;DHT22;9309;52.126;11.616;2023-10-31T09:27:46;12.40;75.20
18365;DHT22;9309;52.126;11.616;2023-10-31T09:30:12;12.50;75.20
18365;DHT22;9309;52.126;11.616;2023-10-31T09:32:40;12.50;75.10
18365;DHT22;9309;52.126;11.616;2023-10-31T09:35:07;12.50;74.60
18365;DHT22;9309;52.126;11.616;2023-10-31T09:37:34;12.50;75.50
18365;DHT22;9309;52.126;11.616;2023-10-31T09:40:01;12.50;74.90
18365;DHT22;9309;52.126;11.616;2023-10-31T09:42:27;12.60;74.90
18365;DHT22;9309;52.126;11.616;2023-10-31T09:44:54;12.90;74.20
18365;DHT22;9309;52.126;11.616;2023-10-31T09:47:21;13.10;73.80
18365;DHT22;9309;52.126;11.616;2023-10-31T09:49:49;13.10;73.10
18365;DHT22;9309;52.126;11.616;2023-10-31T09:52:16;13.30;73.00
18365;DHT22;9309;52.126;11.616;2023-10-31T09:54:45;13.50;72.50
18365;DHT22;9309;52.126;11.616;2023-10-31T09:57:14;13.50;72.20
18365;DHT22;9309;52.126;11.616;2023-10-31T09:59:41;13.40;71.50
18365;DHT22;9309;52.126;11.616;2023-10-31T10:02:07;13.30;72.20
18365;DHT22;9309;52.126;11.616;2023-10-31T10:04:34;13.30;71.60
18365;DHT22;9309;52.126;11.616;2023-10-31T10:07:02;13.30;71.30
18365;DHT22;9309;52.126;11.616;2023-10-31T10:09:29;13.10;71.20
18365;DHT22;9309;52.126;11.616;2023-10-31T10:11:58;13.10;71.40
18365;DHT22;9309;52.126;11.616;2023-10-31T10:14:25;13.00;71.80
18365;DHT22;9309;52.126;11.616;2023-10-31T10:16:53;13.10;72.60
18365;DHT22;9309;52.126;11.616;2023-10-31T10:19:20;12.90;71.90
18365;DHT22;9309;52.126;11.616;2023-10-31T10:21:48;12.70;73.50
18365;DHT22;9309;52.126;11.616;2023-10-31T10:24:16;12.70;74.40
18365;DHT22;9309;52.126;11.616;2023-10-31T10:26:42;12.50;75.20
18365;DHT22;9309;52.126;11.616;2023-10-31T10:29:09;12.20;78.40
18365;DHT22;9309;52.126;11.616;2023-10-31T10:31:35;11.80;82.00
18365;DHT22;9309;52.126;11.616;2023-10-31T10:34:02;11.50;83.50
18365;DHT22;9309;52.126;11.616;2023-10-31T10:36:29;11.20;85.40
18365;DHT22;9309;52.126;11.616;2023-10-31T10:38:58;11.20;86.40
18365;DHT22;9309;52.126;11.616;2023-10-31T10:41:27;11.10;85.70
18365;DHT22;9309;52.126;11.616;2023-10-31T10:43:55;11.10;86.10
18365;DHT22;9309;52.126;11.616;2023-10-31T10:46:22;11.10;85.50
18365;DHT22;9309;52.126;11.616;2023-10-31T10:48:51;11.20;84.50
18365;DHT22;9309;52.126;11.616;2023-10-31T10:51:24;11.40;83.90
18365;DHT22;9309;52.126;11.616;2023-10-31T10:53:54;11.70;81.70
18365;DHT22;9309;52.126;11.616;2023-10-31T10:56:24;12.00;79.70
18365;DHT22;9309;52.126;11.616;2023-10-31T10:58:55;12.20;79.10
18365;DHT22;9309;52.126;11.616;2023-10-31T11:01:22;12.50;77.80
18365;DHT22;9309;52.126;11.616;2023-10-31T11:03:49;12.80;75.90
18365;DHT22;9309;52.126;11.616;2023-10-31T11:06:17;12.70;76.20
18365;DHT22;9309;52.126;11.616;2023-10-31T11:08:45;12.50;76.80
18365;DHT22;9309;52.126;11.616;2023-10-31T11:11:12;12.60;76.70
18365;DHT22;9309;52.126;11.616;2023-10-31T11:13:41;12.70;75.00
18365;DHT22;9309;52.126;11.616;2023-10-31T11:16:11;12.70;74.90
18365;DHT22;9309;52.126;11.616;2023-10-31T11:18:39;12.70;75.40
18365;DHT22;9309;52.126;11.616;2023-10-31T11:21:06;12.90;75.10
18365;DHT22;9309;52.126;11.616;2023-10-31T11:23:33;13.10;74.50
18365;DHT22;9309;52.126;11.616;2023-10-31T11:25:59;13.10;73.20
18365;DHT22;9309;52.126;11.616;2023-10-31T11:28:26;13.10;74.10
18365;DHT22;9309;52.126;11.616;2023-10-31T11:30:53;13.20;72.00
18365;DHT22;9309;52.126;11.616;2023-10-31T11:33:25;13.20;71.50
18365;DHT22;9309;52.126;11.616;2023-10-31T11:35:59;13.10;71.30
18365;DHT22;9309;52.126;11.616;2023-10-31T11:38:30;13.10;72.10
18365;DHT22;9309;52.126;11.616;2023-10-31T11:41:00;13.10;71.40
18365;DHT22;9309;52.126;11.616;2023-10-31T11:46:17;13.00;72.20
18365;DHT22;9309;52.126;11.616;2023-10-31T11:48:46;13.00;72.50
18365;DHT22;9309;52.126;11.616;2023-10-31T11:51:13;12.80;73.60
18365;DHT22;9309;52.126;11.616;2023-10-31T11:53:39;12.70;73.00
18365;DHT22;9309;52.126;11.616;2023-10-31T11:56:17;12.70;72.10
18365;DHT22;9309;52.126;11.616;2023-10-31T11:58:44;12.60;71.50
18365;DHT22;9309;52.126;11.616;2023-10-31T12:01:10;12.50;71.80
18365;DHT22;9309;52.126;11.616;2023-10-31T12:03:37;12.50;72.20
18365;DHT22;9309;52.126;11.616;2023-10-31T12:06:06;12.40;71.80
18365;DHT22;9309;52.126;11.616;2023-10-31T12:08:33;12.50;72.20
18365;DHT22;9309;52.126;11.616;2023-10-31T12:11:04;12.50;73.20
18365;DHT22;9309;52.126;11.616;2023-10-31T12:13:31;12.50;73.00
18365;DHT22;9309;52.126;11.616;2023-10-31T12:15:57;12.60;73.60
18365;DHT22;9309;52.126;11.616;2023-10-31T12:18:26;12.60;72.40
18365;DHT22;9309;52.126;11.616;2023-10-31T12:20:52;12.70;71.70
18365;DHT22;9309;52.126;11.616;2023-10-31T12:23:20;12.70;71.50
18365;DHT22;9309;52.126;11.616;2023-10-31T12:25:47;12.80;71.30
18365;DHT22;9309;52.126;11.616;2023-10-31T12:28:17;12.90;70.90
18365;DHT22;9309;52.126;11.616;2023-10-31T12:30:47;12.90;70.10
18365;DHT22;9309;52.126;11.616;2023-10-31T12:33:14;13.00;70.30
18365;DHT22;9309;52.126;11.616;2023-10-31T12:35:40;13.20;69.30
18365;DHT22;9309;52.126;11.616;2023-10-31T12:38:08;13.30;68.60
18365;DHT22;9309;52.126;11.616;2023-10-31T12:40:37;13.30;68.00
18365;DHT22;9309;52.126;11.616;2023-10-31T12:43:04;13.20;68.60
18365;DHT22;9309;52.126;11.616;2023-10-31T12:45:31;13.20;69.30
18365;DHT22;9309;52.126;11.616;2023-10-31T12:48:01;13.10;69.50
18365;DHT22;9309;52.126;11.616;2023-10-31T12:50:28;12.90;70.00
18365;DHT22;9309;52.126;11.616;2023-10-31T12:52:55;12.90;70.60
18365;DHT22;9309;52.126;11.616;2023-10-31T12:55:23;13.00;70.50
18365;DHT22;9309;52.126;11.616;2023-10-31T12:57:51;13.00;69.90
18365;DHT22;9309;52.126;11.616;2023-10-31T13:00:18;13.00;69.20
18365;DHT22;9309;52.126;11.616;2023-10-31T13:02:50;13.10;70.00
18365;DHT22;9309;52.126;11.616;2023-10-31T13:05:17;13.20;69.40
18365;DHT22;9309;52.126;11.616;2023-10-31T13:07:47;13.20;69.90
18365;DHT22;9309;52.126;11.616;2023-10-31T13:10:15;13.10;70.10
18365;DHT22;9309;52.126;11.616;2023-10-31T13:12:43;13.10;70.10
18365;DHT22;9309;52.126;11.616;2023-10-31T13:15:11;13.00;70.30
18365;DHT22;9309;52.126;11.616;2023-10-31T13:17:37;13.00;70.40
18365;DHT22;9309;52.126;11.616;2023-10-31T13:22:31;13.10;70.10
18365;DHT22;9309;52.126;11.616;2023-10-31T13:24:58;13.20;69.70
18365;DHT22;9309;52.126;11.616;2023-10-31T13:27:24;13.20;70.60
18365;DHT22;9309;52.126;11.616;2023-10-31T13:29:51;13.10;70.10
18365;DHT22;9309;52.126;11.616;2023-10-31T13:32:19;13.00;70.50
18365;DHT22;9309;52.126;11.616;2023-10-31T13:34:46;13.00;70.80
18365;DHT22;9309;52.126;11.616;2023-10-31T13:37:13;13.10;70.70
18365;DHT22;9309;52.126;11.616;2023-10-31T13:39:40;13.10;70.80
18365;DHT22;9309;52.126;11.616;2023-10-31T13:42:07;13.00;71.10
18365;DHT22;9309;52.126;11.616;2023-10-31T13:44:36;12.90;71.20
18365;DHT22;9309;52.126;11.616;2023-10-31T13:47:03;12.90;71.70
18365;DHT22;9309;52.126;11.616;2023-10-31T13:49:31;12.90;71.60
18365;DHT22;9309;52.126;11.616;2023-10-31T13:51:57;12.90;71.50
18365;DHT22;9309;52.126;11.616;2023-10-31T13:54:24;12.90;71.40
18365;DHT22;9309;52.126;11.616;2023-10-31T13:56:52;13.00;71.90
18365;DHT22;9309;52.126;11.616;2023-10-31T13:59:19;12.90;71.40
18365;DHT22;9309;52.126;11.616;2023-10-31T14:01:46;12.90;71.20
18365;DHT22;9309;52.126;11.616;2023-10-31T14:04:13;12.80;72.20
18365;DHT22;9309;52.126;11.616;2023-10-31T14:06:42;12.70;72.20
18365;DHT22;9309;52.126;11.616;2023-10-31T14:09:10;12.60;73.10
18365;DHT22;9309;52.126;11.616;2023-10-31T14:11:38;12.60;73.40
18365;DHT22;9309;52.126;11.616;2023-10-31T14:14:05;12.60;73.60
18365;DHT22;9309;52.126;11.616;2023-10-31T14:16:34;12.50;73.80
18365;DHT22;9309;52.126;11.616;2023-10-31T14:19:01;12.40;74.20
18365;DHT22;9309;52.126;11.616;2023-10-31T14:21:29;12.40;74.50
18365;DHT22;9309;52.126;11.616;2023-10-31T14:23:57;12.40;74.50
18365;DHT22;9309;52.126;11.616;2023-10-31T14:26:24;12.30;75.00
18365;DHT22;9309;52.126;11.616;2023-10-31T14:28:51;12.40;75.10
18365;DHT22;9309;52.126;11.616;2023-10-31T14:31:17;12.40;75.30
18365;DHT22;9309;52.126;11.616;2023-10-31T14:33:44;12.40;75.00
18365;DHT22;9309;52.126;11.616;2023-10-31T14:36:11;12.40;75.30
18365;DHT22;9309;52.126;11.616;2023-10-31T14:38:39;12.30;75.10
18365;DHT22;9309;52.126;11.616;2023-10-31T14:41:08;12.30;75.30
18365;DHT22;9309;52.126;11.616;2023-10-31T14:43:35;12.30;75.70
18365;DHT22;9309;52.126;11.616;2023-10-31T14:46:03;12.30;75.50
18365;DHT22;9309;52.126;11.616;2023-10-31T14:48:29;12.30;75.50
18365;DHT22;9309;52.126;11.616;2023-10-31T14:50:55;12.30;75.50
18365;DHT22;9309;52.126;11.616;2023-10-31T14:53:23;12.20;75.70
18365;DHT22;9309;52.126;11.616;2023-10-31T14:55:50;12.20;76.10
18365;DHT22;9309;52.126;11.616;2023-10-31T14:58:18;12.20;76.00
18365;DHT22;9309;52.126;11.616;2023-10-31T15:00:45;12.20;76.30
18365;DHT22;9309;52.126;11.616;2023-10-31T15:03:12;12.30;76.10
18365;DHT22;9309;52.126;11.616;2023-10-31T15:05:38;12.30;75.60
18365;DHT22;9309;52.126;11.616;2023-10-31T15:08:05;12.30;75.90
18365;DHT22;9309;52.126;11.616;2023-10-31T15:10:32;12.20;76.10
18365;DHT22;9309;52.126;11.616;2023-10-31T15:12:59;12.30;75.90
18365;DHT22;9309;52.126;11.616;2023-10-31T15:15:27;12.20;76.10
18365;DHT22;9309;52.126;11.616;2023-10-31T15:17:54;12.20;75.80
18365;DHT22;9309;52.126;11.616;2023-10-31T15:20:20;12.30;76.30
18365;DHT22;9309;52.126;11.616;2023-10-31T15:22:47;12.30;76.00
18365;DHT22;9309;52.126;11.616;2023-10-31T15:25:14;12.20;76.30
18365;DHT22;9309;52.126;11.616;2023-10-31T15:27:41;12.20;76.30
18365;DHT22;9309;52.126;11.616;2023-10-31T15:30:09;12.20;76.30
18365;DHT22;9309;52.126;11.616;2023-10-31T15:32:38;12.20;76.30
18365;DHT22;9309;52.126;11.616;2023-10-31T15:35:05;12.20;76.40